sensor_id;sensor_type;location;lat;lon;timestamp;pressure;altitude;pressure_sealevel;temperature;humidity
6393;BME280;3229;42.674;23.282;2023-03-21T00:01:14;94475.41;;;15.06;45.06
6393;BME280;3229;42.674;23.282;2023-03-21T00:03:41;94455.38;;;14.94;44.85
6393;BME280;3229;42.674;23.282;2023-03-21T00:06:11;94467.25;;;15.03;44.87
6393;BME280;3229;42.674;23.282;2023-03-21T00:08:38;94476.91;;;15.01;45.02
6393;BME280;3229;42.674;23.282;2023-03-21T00:11:08;94479.31;;;15.02;44.87
6393;BME280;3229;42.674;23.282;2023-03-21T00:13:36;94472.56;;;15.01;44.93
6393;BME280;3229;42.674;23.282;2023-03-21T00:16:08;94473.72;;;14.99;45.01
6393;BME280;3229;42.674;23.282;2023-03-21T00:18:40;94468.72;;;14.97;44.99
6393;BME280;3229;42.674;23.282;2023-03-21T00:21:11;94469.06;;;14.94;45.17
6393;BME280;3229;42.674;23.282;2023-03-21T00:23:40;94469.22;;;14.93;45.32
6393;BME280;3229;42.674;23.282;2023-03-21T00:26:07;94468.75;;;14.89;45.35
6393;BME280;3229;42.674;23.282;2023-03-21T00:28:35;94471.34;;;14.89;45.19
6393;BME280;3229;42.674;23.282;2023-03-21T00:31:02;94467.97;;;14.89;45.31
6393;BME280;3229;42.674;23.282;2023-03-21T00:33:29;94473.47;;;14.86;45.37
6393;BME280;3229;42.674;23.282;2023-03-21T00:35:56;94470.25;;;14.84;45.41
6393;BME280;3229;42.674;23.282;2023-03-21T00:38:24;94474.78;;;14.82;45.47
6393;BME280;3229;42.674;23.282;2023-03-21T00:40:51;94468.97;;;14.79;45.58
6393;BME280;3229;42.674;23.282;2023-03-21T00:43:18;94471.72;;;14.78;45.66
6393;BME280;3229;42.674;23.282;2023-03-21T00:45:49;94469.31;;;14.76;45.51
6393;BME280;3229;42.674;23.282;2023-03-21T00:48:16;94468.69;;;14.74;45.76
6393;BME280;3229;42.674;23.282;2023-03-21T00:50:45;94470.78;;;14.71;45.72
6393;BME280;3229;42.674;23.282;2023-03-21T00:53:12;94459.88;;;14.69;45.75
6393;BME280;3229;42.674;23.282;2023-03-21T00:55:41;94463.41;;;14.68;45.92
6393;BME280;3229;42.674;23.282;2023-03-21T00:58:08;94459.41;;;14.65;45.68
6393;BME280;3229;42.674;23.282;2023-03-21T01:00:35;94463.91;;;14.63;45.96
6393;BME280;3229;42.674;23.282;2023-03-21T01:03:02;94461.69;;;14.60;45.77
6393;BME280;3229;42.674;23.282;2023-03-21T01:05:35;94456.88;;;14.57;46.01
6393;BME280;3229;42.674;23.282;2023-03-21T01:08:20;94457.19;;;14.54;46.03
6393;BME280;3229;42.674;23.282;2023-03-21T01:10:49;94458.50;;;14.50;45.93
6393;BME280;3229;42.674;23.282;2023-03-21T01:13:21;94456.09;;;14.48;46.25
6393;BME280;3229;42.674;23.282;2023-03-21T01:15:50;94448.38;;;14.40;46.15
6393;BME280;3229;42.674;23.282;2023-03-21T01:18:19;94451.59;;;14.42;46.36
6393;BME280;3229;42.674;23.282;2023-03-21T01:20:46;94455.31;;;14.40;46.05
6393;BME280;3229;42.674;23.282;2023-03-21T01:23:14;94451.28;;;14.37;46.45
6393;BME280;3229;42.674;23.282;2023-03-21T01:25:41;94459.16;;;14.36;46.42
6393;BME280;3229;42.674;23.282;2023-03-21T01:28:09;94452.56;;;14.33;46.57
6393;BME280;3229;42.674;23.282;2023-03-21T01:30:37;94459.66;;;14.31;46.42
6393;BME280;3229;42.674;23.282;2023-03-21T01:33:03;94463.22;;;14.30;46.57
6393;BME280;3229;42.674;23.282;2023-03-21T01:35:30;94462.56;;;14.28;46.56
6393;BME280;3229;42.674;23.282;2023-03-21T01:37:57;94462.75;;;14.26;46.57
6393;BME280;3229;42.674;23.282;2023-03-21T01:40:25;94452.47;;;14.26;46.70
6393;BME280;3229;42.674;23.282;2023-03-21T01:42:52;94450.09;;;14.17;46.75
6393;BME280;3229;42.674;23.282;2023-03-21T01:46:07;94455.22;;;14.25;46.62
6393;BME280;3229;42.674;23.282;2023-03-21T01:48:37;94459.69;;;14.23;46.77
6393;BME280;3229;42.674;23.282;2023-03-21T01:51:05;94457.44;;;14.20;46.80
6393;BME280;3229;42.674;23.282;2023-03-21T01:53:35;94459.88;;;14.21;46.94
6393;BME280;3229;42.674;23.282;2023-03-21T01:56:07;94452.31;;;14.20;46.85
6393;BME280;3229;42.674;23.282;2023-03-21T01:58:37;94447.34;;;14.18;46.85
6393;BME280;3229;42.674;23.282;2023-03-21T02:01:08;94446.72;;;14.16;46.70
6393;BME280;3229;42.674;23.282;2023-03-21T02:03:37;94455.38;;;14.15;46.93
6393;BME280;3229;42.674;23.282;2023-03-21T02:06:17;94448.94;;;14.11;46.78
6393;BME280;3229;42.674;23.282;2023-03-21T02:08:45;94458.44;;;14.11;46.90
6393;BME280;3229;42.674;23.282;2023-03-21T02:11:13;94450.91;;;14.09;47.03
6393;BME280;3229;42.674;23.282;2023-03-21T02:13:41;94438.38;;;14.06;47.07
6393;BME280;3229;42.674;23.282;2023-03-21T02:16:13;94440.31;;;14.04;46.97
6393;BME280;3229;42.674;23.282;2023-03-21T02:18:48;94444.81;;;14.02;47.22
6393;BME280;3229;42.674;23.282;2023-03-21T02:21:48;94438.25;;;13.99;47.23
6393;BME280;3229;42.674;23.282;2023-03-21T02:24:38;94443.69;;;13.96;47.33
6393;BME280;3229;42.674;23.282;2023-03-21T02:27:13;94437.28;;;13.92;47.38
6393;BME280;3229;42.674;23.282;2023-03-21T02:33:07;94432.63;;;13.88;47.37
6393;BME280;3229;42.674;23.282;2023-03-21T02:35:51;94430.25;;;13.86;47.44
6393;BME280;3229;42.674;23.282;2023-03-21T02:38:24;94445.81;;;13.85;47.71
6393;BME280;3229;42.674;23.282;2023-03-21T02:41:02;94441.81;;;13.82;47.56
6393;BME280;3229;42.674;23.282;2023-03-21T02:43:34;94430.88;;;13.80;47.45
6393;BME280;3229;42.674;23.282;2023-03-21T02:46:07;94426.72;;;13.79;47.46
6393;BME280;3229;42.674;23.282;2023-03-21T02:48:37;94428.63;;;13.77;47.68
6393;BME280;3229;42.674;23.282;2023-03-21T02:51:06;94426.22;;;13.75;47.75
6393;BME280;3229;42.674;23.282;2023-03-21T02:53:38;94432.50;;;13.73;47.79
6393;BME280;3229;42.674;23.282;2023-03-21T02:56:08;94430.88;;;13.72;47.73
6393;BME280;3229;42.674;23.282;2023-03-21T02:58:37;94434.59;;;13.69;47.80
6393;BME280;3229;42.674;23.282;2023-03-21T03:01:05;94431.56;;;13.66;47.72
6393;BME280;3229;42.674;23.282;2023-03-21T03:03:33;94433.31;;;13.65;47.80
6393;BME280;3229;42.674;23.282;2023-03-21T03:06:08;94432.84;;;13.62;47.85
6393;BME280;3229;42.674;23.282;2023-03-21T03:08:46;94433.00;;;13.60;48.04
6393;BME280;3229;42.674;23.282;2023-03-21T03:11:23;94430.91;;;13.55;48.09
6393;BME280;3229;42.674;23.282;2023-03-21T03:14:00;94435.41;;;13.53;47.99
6393;BME280;3229;42.674;23.282;2023-03-21T03:16:37;94435.72;;;13.50;47.70
6393;BME280;3229;42.674;23.282;2023-03-21T03:19:08;94442.81;;;13.48;47.99
6393;BME280;3229;42.674;23.282;2023-03-21T03:21:39;94433.50;;;13.47;48.13
6393;BME280;3229;42.674;23.282;2023-03-21T03:24:12;94440.56;;;13.45;48.15
6393;BME280;3229;42.674;23.282;2023-03-21T03:26:45;94437.50;;;13.42;48.33
6393;BME280;3229;42.674;23.282;2023-03-21T03:29:16;94437.66;;;13.40;48.33
6393;BME280;3229;42.674;23.282;2023-03-21T03:31:47;94448.91;;;13.39;48.21
6393;BME280;3229;42.674;23.282;2023-03-21T03:34:18;94438.16;;;13.36;48.36
6393;BME280;3229;42.674;23.282;2023-03-21T03:36:49;94442.63;;;13.34;48.23
6393;BME280;3229;42.674;23.282;2023-03-21T03:39:25;94442.81;;;13.32;48.27
6393;BME280;3229;42.674;23.282;2023-03-21T03:41:59;94444.88;;;13.28;48.38
6393;BME280;3229;42.674;23.282;2023-03-21T03:44:27;94441.03;;;13.24;48.22
6393;BME280;3229;42.674;23.282;2023-03-21T03:46:58;94441.81;;;13.25;48.45
6393;BME280;3229;42.674;23.282;2023-03-21T03:49:28;94439.56;;;13.22;48.78
6393;BME280;3229;42.674;23.282;2023-03-21T03:52:00;94428.31;;;13.15;48.44
6393;BME280;3229;42.674;23.282;2023-03-21T03:54:33;94439.09;;;13.18;48.55
6393;BME280;3229;42.674;23.282;2023-03-21T03:57:02;94431.69;;;13.15;48.63
6393;BME280;3229;42.674;23.282;2023-03-21T03:59:32;94437.78;;;13.14;48.56
6393;BME280;3229;42.674;23.282;2023-03-21T04:01:59;94435.53;;;13.11;48.88
6393;BME280;3229;42.674;23.282;2023-03-21T04:04:26;94431.38;;;13.10;48.86
6393;BME280;3229;42.674;23.282;2023-03-21T04:06:54;94433.28;;;13.08;48.90
6393;BME280;3229;42.674;23.282;2023-03-21T04:09:20;94437.00;;;13.05;48.87
6393;BME280;3229;42.674;23.282;2023-03-21T04:11:49;94441.47;;;13.03;48.91
6393;BME280;3229;42.674;23.282;2023-03-21T04:14:15;94430.56;;;13.01;49.19
6393;BME280;3229;42.674;23.282;2023-03-21T04:16:42;94436.66;;;13.00;49.14
6393;BME280;3229;42.674;23.282;2023-03-21T04:19:09;94432.47;;;12.99;49.00
6393;BME280;3229;42.674;23.282;2023-03-21T04:21:36;94424.63;;;12.93;49.20
6393;BME280;3229;42.674;23.282;2023-03-21T04:24:04;94421.88;;;12.94;49.15
6393;BME280;3229;42.674;23.282;2023-03-21T04:26:31;94431.34;;;12.94;49.10
6393;BME280;3229;42.674;23.282;2023-03-21T04:29:01;94425.59;;;12.92;49.53
6393;BME280;3229;42.674;23.282;2023-03-21T04:31:29;94415.47;;;12.90;49.17
6393;BME280;3229;42.674;23.282;2023-03-21T04:33:58;94424.13;;;12.89;49.35
6393;BME280;3229;42.674;23.282;2023-03-21T04:36:25;94430.06;;;12.90;49.58
6393;BME280;3229;42.674;23.282;2023-03-21T04:38:57;94429.44;;;12.88;49.31
6393;BME280;3229;42.674;23.282;2023-03-21T04:41:26;94433.41;;;12.90;49.33
6393;BME280;3229;42.674;23.282;2023-03-21T04:43:52;94433.41;;;12.90;49.43
6393;BME280;3229;42.674;23.282;2023-03-21T04:46:21;94431.53;;;12.92;49.44
6393;BME280;3229;42.674;23.282;2023-03-21T04:48:48;94432.31;;;12.93;49.66
6393;BME280;3229;42.674;23.282;2023-03-21T04:51:15;94437.94;;;12.96;49.25
6393;BME280;3229;42.674;23.282;2023-03-21T04:53:42;94436.66;;;13.00;49.26
6393;BME280;3229;42.674;23.282;2023-03-21T04:56:10;94436.31;;;13.03;49.28
6393;BME280;3229;42.674;23.282;2023-03-21T04:58:37;94431.19;;;13.03;49.19
6393;BME280;3229;42.674;23.282;2023-03-21T05:01:05;94426.72;;;13.05;49.33
6393;BME280;3229;42.674;23.282;2023-03-21T05:03:34;94446.13;;;13.16;49.22
6393;BME280;3229;42.674;23.282;2023-03-21T05:06:05;94439.72;;;13.20;49.29
6393;BME280;3229;42.674;23.282;2023-03-21T05:08:33;94444.25;;;13.26;49.16
6393;BME280;3229;42.674;23.282;2023-03-21T05:11:00;94444.09;;;13.28;49.08
6393;BME280;3229;42.674;23.282;2023-03-21T05:13:27;94441.69;;;13.35;49.19
6393;BME280;3229;42.674;23.282;2023-03-21T05:15:53;94444.72;;;13.38;49.07
6393;BME280;3229;42.674;23.282;2023-03-21T05:18:20;94449.06;;;13.46;49.02
6393;BME280;3229;42.674;23.282;2023-03-21T05:20:51;94443.44;;;13.50;49.03
6393;BME280;3229;42.674;23.282;2023-03-21T05:23:19;94444.56;;;13.56;49.17
6393;BME280;3229;42.674;23.282;2023-03-21T05:25:46;94449.69;;;13.64;48.97
6393;BME280;3229;42.674;23.282;2023-03-21T05:28:13;94447.28;;;13.71;48.73
6393;BME280;3229;42.674;23.282;2023-03-21T05:30:43;94447.44;;;13.77;48.89
6393;BME280;3229;42.674;23.282;2023-03-21T05:33:10;94447.56;;;13.84;48.81
6393;BME280;3229;42.674;23.282;2023-03-21T05:35:37;94455.09;;;13.94;48.82
6393;BME280;3229;42.674;23.282;2023-03-21T05:38:06;94451.53;;;14.03;48.78
6393;BME280;3229;42.674;23.282;2023-03-21T05:40:32;94451.22;;;14.14;48.81
6393;BME280;3229;42.674;23.282;2023-03-21T05:42:59;94451.00;;;14.24;48.47
6393;BME280;3229;42.674;23.282;2023-03-21T05:45:26;94451.28;;;14.37;48.25
6393;BME280;3229;42.674;23.282;2023-03-21T05:47:53;94448.38;;;14.48;48.31
6393;BME280;3229;42.674;23.282;2023-03-21T05:50:20;94442.88;;;14.60;48.08
6393;BME280;3229;42.674;23.282;2023-03-21T05:52:46;94430.78;;;14.68;47.84
6393;BME280;3229;42.674;23.282;2023-03-21T05:55:15;94431.31;;;14.87;47.56
6393;BME280;3229;42.674;23.282;2023-03-21T05:57:42;94432.34;;;15.00;47.44
6393;BME280;3229;42.674;23.282;2023-03-21T06:00:10;94427.88;;;15.17;47.19
6393;BME280;3229;42.674;23.282;2023-03-21T06:02:37;94424.22;;;15.49;68.45
6393;BME280;3229;42.674;23.282;2023-03-21T06:05:04;94421.88;;;16.15;71.80
6393;BME280;3229;42.674;23.282;2023-03-21T06:07:32;94417.16;;;16.85;69.47
6393;BME280;3229;42.674;23.282;2023-03-21T06:10:00;94416.31;;;17.48;67.14
6393;BME280;3229;42.674;23.282;2023-03-21T06:12:29;94416.34;;;18.04;64.76
6393;BME280;3229;42.674;23.282;2023-03-21T06:14:56;94416.59;;;18.51;62.82
6393;BME280;3229;42.674;23.282;2023-03-21T06:17:24;94415.78;;;18.92;61.72
6393;BME280;3229;42.674;23.282;2023-03-21T06:19:50;94410.44;;;19.26;60.19
6393;BME280;3229;42.674;23.282;2023-03-21T06:22:17;94413.47;;;19.57;59.21
6393;BME280;3229;42.674;23.282;2023-03-21T06:24:44;94413.47;;;19.83;58.52
6393;BME280;3229;42.674;23.282;2023-03-21T06:27:11;94406.03;;;20.07;58.00
6393;BME280;3229;42.674;23.282;2023-03-21T06:29:39;94404.59;;;20.30;57.38
6393;BME280;3229;42.674;23.282;2023-03-21T06:32:06;94402.75;;;20.51;56.90
6393;BME280;3229;42.674;23.282;2023-03-21T06:34:33;94401.28;;;20.68;56.43
6393;BME280;3229;42.674;23.282;2023-03-21T06:37:00;94418.41;;;20.76;55.83
6393;BME280;3229;42.674;23.282;2023-03-21T06:39:28;94416.84;;;20.75;54.83
6393;BME280;3229;42.674;23.282;2023-03-21T06:41:55;94422.88;;;20.69;54.03
6393;BME280;3229;42.674;23.282;2023-03-21T06:44:22;94417.69;;;20.62;53.44
6393;BME280;3229;42.674;23.282;2023-03-21T06:46:52;94416.53;;;20.51;52.89
6393;BME280;3229;42.674;23.282;2023-03-21T06:49:19;94420.53;;;20.47;52.56
6393;BME280;3229;42.674;23.282;2023-03-21T06:51:48;94423.13;;;20.41;51.91
6393;BME280;3229;42.674;23.282;2023-03-21T06:54:16;94432.75;;;20.34;51.52
6393;BME280;3229;42.674;23.282;2023-03-21T06:56:43;94435.34;;;20.27;51.21
6393;BME280;3229;42.674;23.282;2023-03-21T06:59:10;94440.38;;;20.22;50.98
6393;BME280;3229;42.674;23.282;2023-03-21T07:01:37;94436.59;;;20.18;50.66
6393;BME280;3229;42.674;23.282;2023-03-21T07:04:06;94425.41;;;20.17;50.28
6393;BME280;3229;42.674;23.282;2023-03-21T07:06:33;94435.34;;;20.20;49.96
6393;BME280;3229;42.674;23.282;2023-03-21T07:09:00;94439.75;;;20.26;49.65
6393;BME280;3229;42.674;23.282;2023-03-21T07:11:27;94436.50;;;20.38;49.14
6393;BME280;3229;42.674;23.282;2023-03-21T07:13:54;94435.13;;;20.48;48.96
6393;BME280;3229;42.674;23.282;2023-03-21T07:16:21;94434.50;;;20.60;48.56
6393;BME280;3229;42.674;23.282;2023-03-21T07:18:49;94438.25;;;20.70;48.14
6393;BME280;3229;42.674;23.282;2023-03-21T07:21:18;94445.81;;;20.78;48.02
6393;BME280;3229;42.674;23.282;2023-03-21T07:23:44;94441.78;;;20.83;47.80
6393;BME280;3229;42.674;23.282;2023-03-21T07:26:12;94441.41;;;20.86;47.72
6393;BME280;3229;42.674;23.282;2023-03-21T07:28:40;94427.16;;;20.88;47.47
6393;BME280;3229;42.674;23.282;2023-03-21T07:31:07;94430.94;;;20.92;47.21
6393;BME280;3229;42.674;23.282;2023-03-21T07:33:34;94432.13;;;20.96;47.03
6393;BME280;3229;42.674;23.282;2023-03-21T07:36:01;94427.53;;;20.98;46.74
6393;BME280;3229;42.674;23.282;2023-03-21T07:38:29;94442.69;;;21.01;46.48
6393;BME280;3229;42.674;23.282;2023-03-21T07:40:58;94432.09;;;21.03;46.49
6393;BME280;3229;42.674;23.282;2023-03-21T07:43:25;94436.69;;;21.08;46.30
6393;BME280;3229;42.674;23.282;2023-03-21T07:45:56;94435.03;;;21.13;46.15
6393;BME280;3229;42.674;23.282;2023-03-21T07:48:24;94437.41;;;21.21;45.71
6393;BME280;3229;42.674;23.282;2023-03-21T07:50:51;94438.53;;;21.32;45.88
6393;BME280;3229;42.674;23.282;2023-03-21T07:53:18;94441.69;;;21.41;45.53
6393;BME280;3229;42.674;23.282;2023-03-21T07:55:48;94448.81;;;21.52;45.28
6393;BME280;3229;42.674;23.282;2023-03-21T07:58:15;94456.38;;;21.60;45.14
6393;BME280;3229;42.674;23.282;2023-03-21T08:00:42;94450.13;;;21.68;44.90
6393;BME280;3229;42.674;23.282;2023-03-21T08:03:10;94440.06;;;21.71;45.01
6393;BME280;3229;42.674;23.282;2023-03-21T08:05:37;94448.25;;;21.75;44.85
6393;BME280;3229;42.674;23.282;2023-03-21T08:08:05;94448.84;;;21.77;44.66
6393;BME280;3229;42.674;23.282;2023-03-21T08:10:33;94449.41;;;21.79;44.49
6393;BME280;3229;42.674;23.282;2023-03-21T08:13:01;94447.41;;;21.81;44.44
6393;BME280;3229;42.674;23.282;2023-03-21T08:15:28;94443.00;;;21.82;44.12
6393;BME280;3229;42.674;23.282;2023-03-21T08:17:57;94441.75;;;21.84;44.09
6393;BME280;3229;42.674;23.282;2023-03-21T08:20:24;94442.13;;;21.88;43.89
6393;BME280;3229;42.674;23.282;2023-03-21T08:22:52;94442.72;;;21.90;43.94
6393;BME280;3229;42.674;23.282;2023-03-21T08:25:20;94438.09;;;21.92;43.79
6393;BME280;3229;42.674;23.282;2023-03-21T08:27:48;94429.25;;;21.93;43.61
6393;BME280;3229;42.674;23.282;2023-03-21T08:30:18;94433.25;;;21.95;43.63
6393;BME280;3229;42.674;23.282;2023-03-21T08:32:46;94429.44;;;21.98;43.39
6393;BME280;3229;42.674;23.282;2023-03-21T08:35:14;94412.28;;;21.90;43.31
6393;BME280;3229;42.674;23.282;2023-03-21T08:37:42;94430.94;;;22.05;43.41
6393;BME280;3229;42.674;23.282;2023-03-21T08:40:11;94433.72;;;22.11;43.13
6393;BME280;3229;42.674;23.282;2023-03-21T08:42:39;94434.91;;;22.15;43.08
6393;BME280;3229;42.674;23.282;2023-03-21T08:45:07;94437.06;;;22.18;43.06
6393;BME280;3229;42.674;23.282;2023-03-21T08:47:36;94424.66;;;22.20;42.73
6393;BME280;3229;42.674;23.282;2023-03-21T08:50:04;94432.47;;;22.20;42.67
6393;BME280;3229;42.674;23.282;2023-03-21T08:52:32;94435.06;;;22.20;42.60
6393;BME280;3229;42.674;23.282;2023-03-21T08:54:59;94426.47;;;22.19;42.67
6393;BME280;3229;42.674;23.282;2023-03-21T08:57:26;94425.44;;;22.20;42.54
6393;BME280;3229;42.674;23.282;2023-03-21T08:59:54;94432.25;;;22.21;42.58
6393;BME280;3229;42.674;23.282;2023-03-21T09:02:21;94426.00;;;22.22;42.36
6393;BME280;3229;42.674;23.282;2023-03-21T09:04:49;94422.97;;;22.25;42.36
6393;BME280;3229;42.674;23.282;2023-03-21T09:07:20;94420.94;;;22.27;42.45
6393;BME280;3229;42.674;23.282;2023-03-21T09:09:50;94421.75;;;22.28;42.35
6393;BME280;3229;42.674;23.282;2023-03-21T09:12:17;94414.38;;;22.25;42.30
6393;BME280;3229;42.674;23.282;2023-03-21T09:14:44;94415.81;;;22.21;42.02
6393;BME280;3229;42.674;23.282;2023-03-21T09:17:13;94409.22;;;22.18;41.95
6393;BME280;3229;42.674;23.282;2023-03-21T09:19:40;94410.25;;;22.17;42.07
6393;BME280;3229;42.674;23.282;2023-03-21T09:22:08;94402.66;;;22.16;42.15
6393;BME280;3229;42.674;23.282;2023-03-21T09:24:42;94400.25;;;22.14;41.98
6393;BME280;3229;42.674;23.282;2023-03-21T09:27:09;94400.03;;;22.16;42.08
6393;BME280;3229;42.674;23.282;2023-03-21T09:29:36;94389.19;;;22.19;41.85
6393;BME280;3229;42.674;23.282;2023-03-21T09:32:03;94386.94;;;22.22;41.87
6393;BME280;3229;42.674;23.282;2023-03-21T09:34:31;94385.72;;;22.25;41.78
6393;BME280;3229;42.674;23.282;2023-03-21T09:36:58;94392.66;;;22.31;41.70
6393;BME280;3229;42.674;23.282;2023-03-21T09:39:26;94381.00;;;22.34;41.52
6393;BME280;3229;42.674;23.282;2023-03-21T09:42:26;94367.47;;;22.43;41.58
6393;BME280;3229;42.674;23.282;2023-03-21T09:45:05;94358.56;;;22.51;41.18
6393;BME280;3229;42.674;23.282;2023-03-21T09:47:37;94367.72;;;22.53;41.56
6393;BME280;3229;42.674;23.282;2023-03-21T09:50:13;94374.31;;;22.56;41.53
6393;BME280;3229;42.674;23.282;2023-03-21T09:52:47;94365.72;;;22.56;41.34
6393;BME280;3229;42.674;23.282;2023-03-21T09:55:19;94367.66;;;22.60;41.37
6393;BME280;3229;42.674;23.282;2023-03-21T09:57:51;94357.47;;;22.59;41.13
6393;BME280;3229;42.674;23.282;2023-03-21T10:00:25;94359.78;;;22.67;41.16
6393;BME280;3229;42.674;23.282;2023-03-21T10:02:54;94355.91;;;22.69;40.96
6393;BME280;3229;42.674;23.282;2023-03-21T10:05:25;94350.03;;;22.74;41.04
6393;BME280;3229;42.674;23.282;2023-03-21T10:07:56;94351.41;;;22.76;40.88
6393;BME280;3229;42.674;23.282;2023-03-21T10:10:27;94351.91;;;22.85;41.10
6393;BME280;3229;42.674;23.282;2023-03-21T10:12:55;94346.97;;;22.95;40.55
6393;BME280;3229;42.674;23.282;2023-03-21T10:15:24;94348.16;;;23.11;40.43
6393;BME280;3229;42.674;23.282;2023-03-21T10:17:56;94339.19;;;23.31;40.45
6393;BME280;3229;42.674;23.282;2023-03-21T10:20:25;94316.06;;;23.34;39.98
6393;BME280;3229;42.674;23.282;2023-03-21T10:22:57;94339.50;;;23.76;39.87
6393;BME280;3229;42.674;23.282;2023-03-21T10:25:30;94343.91;;;23.99;39.39
6393;BME280;3229;42.674;23.282;2023-03-21T10:27:58;94331.47;;;24.18;39.26
6393;BME280;3229;42.674;23.282;2023-03-21T10:30:35;94338.84;;;24.33;39.18
6393;BME280;3229;42.674;23.282;2023-03-21T10:33:06;94339.63;;;24.45;39.10
6393;BME280;3229;42.674;23.282;2023-03-21T10:35:35;94343.72;;;24.52;39.02
6393;BME280;3229;42.674;23.282;2023-03-21T10:38:04;94343.22;;;24.56;38.77
6393;BME280;3229;42.674;23.282;2023-03-21T10:40:33;94345.72;;;24.62;38.83
6393;BME280;3229;42.674;23.282;2023-03-21T10:43:16;94344.22;;;24.66;38.59
6393;BME280;3229;42.674;23.282;2023-03-21T10:45:45;94338.28;;;24.71;38.84
6393;BME280;3229;42.674;23.282;2023-03-21T10:48:11;94317.16;;;24.61;38.66
6393;BME280;3229;42.674;23.282;2023-03-21T10:50:39;94336.56;;;24.76;38.53
6393;BME280;3229;42.674;23.282;2023-03-21T10:53:14;94344.25;;;24.83;38.49
6393;BME280;3229;42.674;23.282;2023-03-21T10:55:47;94341.94;;;24.87;38.58
6393;BME280;3229;42.674;23.282;2023-03-21T10:58:17;94329.44;;;24.89;38.21
6393;BME280;3229;42.674;23.282;2023-03-21T11:00:55;94321.34;;;24.90;38.32
6393;BME280;3229;42.674;23.282;2023-03-21T11:03:26;94323.50;;;24.93;38.55
6393;BME280;3229;42.674;23.282;2023-03-21T11:05:59;94320.09;;;24.93;38.15
6393;BME280;3229;42.674;23.282;2023-03-21T11:08:27;94320.09;;;24.93;38.56
6393;BME280;3229;42.674;23.282;2023-03-21T11:10:59;94307.81;;;24.93;38.21
6393;BME280;3229;42.674;23.282;2023-03-21T11:13:33;94318.03;;;24.95;38.04
6393;BME280;3229;42.674;23.282;2023-03-21T11:16:07;94306.78;;;24.94;38.43
6393;BME280;3229;42.674;23.282;2023-03-21T11:18:40;94311.78;;;24.96;38.48
6393;BME280;3229;42.674;23.282;2023-03-21T11:21:09;94307.09;;;24.98;38.33
6393;BME280;3229;42.674;23.282;2023-03-21T11:23:40;94305.84;;;25.00;38.04
6393;BME280;3229;42.674;23.282;2023-03-21T11:26:16;94307.97;;;25.03;38.04
6393;BME280;3229;42.674;23.282;2023-03-21T11:28:45;94301.59;;;25.11;38.03
6393;BME280;3229;42.674;23.282;2023-03-21T11:31:12;94282.22;;;25.12;37.93
6393;BME280;3229;42.674;23.282;2023-03-21T11:33:41;94284.38;;;25.15;37.85
6393;BME280;3229;42.674;23.282;2023-03-21T11:36:26;94277.25;;;25.11;37.88
6393;BME280;3229;42.674;23.282;2023-03-21T11:39:01;94277.13;;;25.06;37.92
6393;BME280;3229;42.674;23.282;2023-03-21T11:41:34;94281.00;;;25.03;37.96
6393;BME280;3229;42.674;23.282;2023-03-21T11:44:01;94273.34;;;24.96;37.86
6393;BME280;3229;42.674;23.282;2023-03-21T11:46:30;94276.66;;;24.92;37.77
6393;BME280;3229;42.674;23.282;2023-03-21T11:48:58;94267.59;;;24.83;37.69
6393;BME280;3229;42.674;23.282;2023-03-21T11:51:30;94275.44;;;24.83;37.82
6393;BME280;3229;42.674;23.282;2023-03-21T11:54:05;94266.25;;;24.80;38.02
6393;BME280;3229;42.674;23.282;2023-03-21T11:56:41;94264.34;;;24.75;38.03
6393;BME280;3229;42.674;23.282;2023-03-21T11:59:35;94266.41;;;24.73;37.66
6393;BME280;3229;42.674;23.282;2023-03-21T12:02:24;94266.09;;;24.70;37.97
6393;BME280;3229;42.674;23.282;2023-03-21T12:04:54;94259.97;;;24.64;37.90
6393;BME280;3229;42.674;23.282;2023-03-21T12:07:37;94252.63;;;24.61;37.92
6393;BME280;3229;42.674;23.282;2023-03-21T12:10:28;94250.47;;;24.58;37.82
6393;BME280;3229;42.674;23.282;2023-03-21T12:13:05;94252.75;;;24.55;37.71
6393;BME280;3229;42.674;23.282;2023-03-21T12:15:39;94247.19;;;24.51;38.00
6393;BME280;3229;42.674;23.282;2023-03-21T12:18:16;94246.06;;;24.47;38.07
6393;BME280;3229;42.674;23.282;2023-03-21T12:20:49;94240.84;;;24.47;37.83
6393;BME280;3229;42.674;23.282;2023-03-21T12:23:29;94247.09;;;24.46;37.86
6393;BME280;3229;42.674;23.282;2023-03-21T12:26:09;94245.28;;;24.46;37.92
6393;BME280;3229;42.674;23.282;2023-03-21T12:28:47;94236.88;;;24.44;37.86
6393;BME280;3229;42.674;23.282;2023-03-21T12:31:20;94230.31;;;24.42;37.74
6393;BME280;3229;42.674;23.282;2023-03-21T12:34:00;94234.97;;;24.40;37.54
6393;BME280;3229;42.674;23.282;2023-03-21T12:36:45;94224.97;;;24.37;37.58
6393;BME280;3229;42.674;23.282;2023-03-21T12:39:24;94222.81;;;24.34;37.91
6393;BME280;3229;42.674;23.282;2023-03-21T12:42:02;94224.88;;;24.32;37.92
6393;BME280;3229;42.674;23.282;2023-03-21T12:44:34;94225.66;;;24.32;37.62
6393;BME280;3229;42.674;23.282;2023-03-21T12:47:07;94226.44;;;24.33;37.66
6393;BME280;3229;42.674;23.282;2023-03-21T12:49:40;94215.75;;;24.34;37.65
6393;BME280;3229;42.674;23.282;2023-03-21T12:52:11;94212.81;;;24.31;37.72
6393;BME280;3229;42.674;23.282;2023-03-21T12:54:42;94213.84;;;24.29;37.80
6393;BME280;3229;42.674;23.282;2023-03-21T12:57:14;94200.44;;;24.26;37.70
6393;BME280;3229;42.674;23.282;2023-03-21T12:59:47;94202.50;;;24.24;37.42
6393;BME280;3229;42.674;23.282;2023-03-21T13:02:21;94204.56;;;24.22;37.79
6393;BME280;3229;42.674;23.282;2023-03-21T13:04:57;94201.63;;;24.18;37.64
6393;BME280;3229;42.674;23.282;2023-03-21T13:07:28;94199.72;;;24.14;37.83
6393;BME280;3229;42.674;23.282;2023-03-21T13:09:57;94190.19;;;24.08;37.66
6393;BME280;3229;42.674;23.282;2023-03-21T13:12:43;94187.75;;;24.01;37.66
6393;BME280;3229;42.674;23.282;2023-03-21T13:15:49;94191.50;;;23.93;37.72
6393;BME280;3229;42.674;23.282;2023-03-21T13:18:28;94182.53;;;23.89;37.94
6393;BME280;3229;42.674;23.282;2023-03-21T13:20:59;94181.41;;;23.85;37.77
6393;BME280;3229;42.674;23.282;2023-03-21T13:23:33;94179.72;;;23.79;37.80
6393;BME280;3229;42.674;23.282;2023-03-21T13:26:01;94179.19;;;23.77;37.66
6393;BME280;3229;42.674;23.282;2023-03-21T13:28:30;94175.69;;;23.71;37.83
6393;BME280;3229;42.674;23.282;2023-03-21T13:31:17;94171.94;;;23.67;37.90